Aérodrome :
LOGIN :

S'inscrire | Disclaimer

   EN    FR    IT 

 










Légende :    VFR   VFR Marginal   IFR   IFR Intensif   IFR Très Intensif
Visi : 
Plafond : 
>= 8 km
>= 3000ft
5 à 8 km
1000 à 3000 ft
1500m à 5 km
500 à 1000 ft
800 à 1500m
200 à 500 ft
< 800m
< 200 ft
Symboles :   Orages  Brouillard  Fortes neiges  Fortes précipitations  Vent > 20 kt
SIGMETs :   Divers  Orages  Givrage  Turbulence  Onde Orograph.  Cendres Volcan.







- Altitude de l'aérodrome : 1302 ft
- Code IATA : GNB
- Voir les cartes d'approche


LFLS - Grenoble / St. Geoirs

DERNIER METAR :
  • 220630Z AUTO 10006KT CAVOK 15/10 Q1019 NOSIG

METARs EXPIRÉS :
  • 220600Z AUTO 10006KT CAVOK 13/09 Q1019 NOSIG
  • 220530Z AUTO 08004KT CAVOK 10/08 Q1019 NOSIG
  • 220500Z AUTO 08006KT CAVOK 08/06 Q1018 NOSIG
  • 220430Z AUTO 08005KT CAVOK 09/07 Q1018 NOSIG
  • 220400Z AUTO 09004KT CAVOK 09/06 Q1018 NOSIG

TAF TAF LFLS
Valide du 22 à 03h jusqu'au 23 à 03h UTC


220200Z 2203/2303 09006KT CAVOK
BECMG 2208/2210 24008KT
BECMG 2219/2221 VRB02KT
ATIS : +33 4 76 65 55 89
Pas de NOTAMs connus pour ce terrain.



MET'MAP, la Météo Aéronautique d'un coup d'oeil ! - Copyright ORBIFLY Décembre 2007 - Disclaimer

ORBIFLY MET'MAP TEAM :

Programmation & Développement : Alexandra Zaïnal
Conception & Développement : Baudouin d'Aumeries
Co-Programmation & Développement : Marc-Olivier Méhu
Soutien technique & logistique : Manuel Goepfert

Contact : metmap@orbifly.com




SOURCES & CREDITS :

   NOAA